Time;durP1;ratioP1;P1;durP2;ratioP2;P2;SDS_P1;SDS_P2;PMS_P1;PMS_P2;Temp;Humidity;BMP_temperature;BMP_pressure;BME280_temperature;BME280_humidity;BME280_pressure;Samples;Min_cycle;Max_cycle;Signal;HPM_P1;HPM_P2
2022/11/23 00:00:25;;;;;;;6.50;1.63;;;2.70;99.90;;;;;;5021315;28;20237;-67
2022/11/23 00:02:54;;;;;;;2.57;1.30;;;2.70;99.90;;;;;;5023019;28;20179;-67
2022/11/23 00:05:20;;;;;;;8.10;1.40;;;2.80;99.90;;;;;;5010614;28;20425;-67
2022/11/23 00:07:46;;;;;;;9.83;1.23;;;2.80;99.90;;;;;;5011910;28;20521;-67
2022/11/23 00:10:11;;;;;;;6.50;1.57;;;2.80;99.90;;;;;;5026629;28;20626;-67
2022/11/23 00:12:37;;;;;;;1.87;1.10;;;2.80;99.90;;;;;;5022679;28;20179;-67
2022/11/23 00:15:04;;;;;;;4.70;1.63;;;2.90;99.90;;;;;;5024632;28;20588;-67
2022/11/23 00:17:30;;;;;;;3.67;1.07;;;2.90;99.90;;;;;;5020528;28;20441;-67
2022/11/23 00:19:55;;;;;;;2.90;1.27;;;3.00;99.90;;;;;;5029604;28;20429;-67
2022/11/23 00:22:21;;;;;;;3.53;0.93;;;3.10;99.90;;;;;;5019829;28;20210;-67
2022/11/23 00:24:46;;;;;;;3.17;1.23;;;3.10;99.90;;;;;;5016067;28;20703;-67
2022/11/23 00:27:12;;;;;;;4.10;1.13;;;3.20;99.90;;;;;;5019878;28;20548;-67
2022/11/23 00:29:38;;;;;;;3.20;1.53;;;3.30;99.90;;;;;;5015826;28;20281;-66
2022/11/23 00:32:03;;;;;;;3.07;1.20;;;3.30;99.90;;;;;;5019280;28;20568;-66
2022/11/23 00:34:29;;;;;;;1.40;0.60;;;3.40;99.90;;;;;;5029505;28;20236;-66
2022/11/23 00:36:54;;;;;;;3.60;1.07;;;3.40;99.90;;;;;;5019371;28;20185;-67
2022/11/23 00:39:20;;;;;;;2.67;1.20;;;3.50;99.90;;;;;;5015621;28;20543;-66
2022/11/23 00:41:45;;;;;;;1.77;0.70;;;3.50;99.90;;;;;;5010689;28;20194;-67
2022/11/23 00:44:11;;;;;;;3.13;1.10;;;3.40;99.90;;;;;;5012464;28;20195;-66
2022/11/23 00:46:37;;;;;;;5.70;1.77;;;3.50;99.90;;;;;;5023568;28;20636;-66
2022/11/23 00:49:03;;;;;;;3.30;1.10;;;3.50;99.90;;;;;;5028152;28;20228;-67
2022/11/23 00:51:31;;;;;;;4.93;0.70;;;3.60;99.90;;;;;;5021867;28;20190;-66
2022/11/23 00:53:58;;;;;;;1.80;0.90;;;3.60;99.90;;;;;;5011681;28;20815;-66
2022/11/23 00:56:24;;;;;;;3.70;0.70;;;3.60;99.90;;;;;;5027951;28;20463;-66
2022/11/23 00:58:51;;;;;;;1.30;0.70;;;3.60;99.90;;;;;;5030654;28;20432;-67
2022/11/23 01:01:19;;;;;;;3.27;1.40;;;3.50;99.90;;;;;;5030960;28;20417;-66
2022/11/23 01:03:48;;;;;;;3.33;1.37;;;3.50;99.90;;;;;;5030939;28;20432;-66
2022/11/23 01:06:19;;;;;;;3.90;1.13;;;3.60;99.90;;;;;;5034069;28;20421;-66
2022/11/23 01:08:54;;;;;;;3.73;1.37;;;3.50;99.90;;;;;;5031326;28;20465;-67
2022/11/23 01:11:21;;;;;;;3.10;0.90;;;3.50;99.90;;;;;;5014830;28;20418;-67
2022/11/23 01:13:47;;;;;;;4.13;1.20;;;3.60;99.90;;;;;;5017199;28;20821;-66
2022/11/23 01:16:15;;;;;;;4.80;0.90;;;3.60;99.90;;;;;;5023492;28;20422;-66
2022/11/23 01:18:40;;;;;;;3.93;1.70;;;3.60;99.90;;;;;;5027995;28;20226;-66
2022/11/23 01:21:07;;;;;;;3.80;1.40;;;3.60;99.90;;;;;;5017035;28;20854;-67
2022/11/23 01:23:32;;;;;;;3.00;1.00;;;3.60;99.90;;;;;;5027373;28;20185;-67
2022/11/23 01:26:07;;;;;;;2.37;1.20;;;3.60;99.90;;;;;;5026330;28;20433;-67
2022/11/23 01:28:33;;;;;;;2.77;0.90;;;3.60;99.90;;;;;;5028094;28;20551;-66
2022/11/23 01:31:08;;;;;;;1.53;0.80;;;3.50;99.90;;;;;;5027278;28;20884;-66
2022/11/23 01:33:34;;;;;;;2.20;1.00;;;3.50;99.90;;;;;;5033889;28;20429;-66
2022/11/23 01:36:00;;;;;;;2.93;1.73;;;3.50;99.90;;;;;;5020282;28;20418;-67
2022/11/23 01:38:25;;;;;;;3.53;1.40;;;3.40;99.90;;;;;;5029676;28;20909;-67
2022/11/23 01:40:51;;;;;;;3.77;1.17;;;3.30;99.90;;;;;;5033425;28;20212;-67
2022/11/23 01:43:17;;;;;;;5.30;1.90;;;3.30;99.90;;;;;;5013371;28;20183;-67
2022/11/23 01:45:52;;;;;;;11.27;1.27;;;3.30;99.90;;;;;;5028443;28;20585;-67
2022/11/23 01:48:23;;;;;;;4.30;1.43;;;3.20;99.90;;;;;;5025677;28;20421;-66
2022/11/23 01:50:51;;;;;;;7.53;1.13;;;3.20;99.90;;;;;;5029533;28;20425;-67
2022/11/23 01:53:19;;;;;;;1.20;0.67;;;3.20;99.90;;;;;;5023523;28;20898;-66
2022/11/23 01:55:47;;;;;;;2.93;0.90;;;3.10;99.90;;;;;;5023599;28;20420;-66
2022/11/23 01:58:17;;;;;;;3.07;0.93;;;3.10;99.90;;;;;;5033097;28;20413;-67
2022/11/23 02:00:44;;;;;;;3.83;0.80;;;3.10;99.90;;;;;;5033819;28;20996;-66
2022/11/23 02:03:10;;;;;;;4.93;1.77;;;3.10;99.90;;;;;;5032831;28;20418;-66
2022/11/23 02:05:41;;;;;;;4.30;2.10;;;3.10;99.90;;;;;;5028336;28;20512;-66
2022/11/23 02:08:07;;;;;;;1.83;1.07;;;3.10;99.90;;;;;;5024855;28;20425;-67
2022/11/23 02:10:33;;;;;;;3.77;1.27;;;3.10;99.90;;;;;;5028582;28;20572;-66
2022/11/23 02:13:05;;;;;;;4.40;1.57;;;3.00;99.90;;;;;;5024618;28;20767;-66
2022/11/23 02:15:32;;;;;;;3.00;1.33;;;3.00;99.90;;;;;;5018766;28;20406;-67
2022/11/23 02:17:59;;;;;;;1.70;1.03;;;3.00;99.90;;;;;;5033036;28;20492;-67
2022/11/23 02:20:25;;;;;;;2.50;1.13;;;3.00;99.90;;;;;;5027477;28;20418;-66
2022/11/23 02:23:03;;;;;;;6.50;2.47;;;2.90;99.90;;;;;;5013000;28;20486;-66
2022/11/23 02:25:37;;;;;;;3.57;1.13;;;2.80;99.90;;;;;;5006489;28;20209;-67
2022/11/23 02:28:03;;;;;;;3.40;1.50;;;2.80;99.90;;;;;;5024603;28;20419;-66
2022/11/23 02:30:31;;;;;;;7.23;0.80;;;2.80;99.90;;;;;;5028785;28;20465;-67
2022/11/23 02:32:56;;;;;;;5.00;1.17;;;2.80;99.90;;;;;;5032410;28;20182;-67
2022/11/23 02:35:22;;;;;;;4.70;1.97;;;2.70;99.90;;;;;;5024691;28;20418;-66
2022/11/23 02:37:49;;;;;;;4.37;2.43;;;2.70;99.90;;;;;;5013328;28;20286;-67
2022/11/23 02:40:25;;;;;;;5.93;1.33;;;2.70;99.90;;;;;;5021614;28;20187;-67
2022/11/23 02:42:51;;;;;;;15.53;1.63;;;2.70;99.90;;;;;;5029802;28;20547;-66
2022/11/23 02:45:33;;;;;;;3.37;0.93;;;2.70;99.90;;;;;;5022290;28;20553;-66
2022/11/23 02:47:59;;;;;;;4.50;1.43;;;2.70;99.90;;;;;;5032790;28;20190;-67
2022/11/23 02:50:24;;;;;;;3.73;1.47;;;2.70;99.90;;;;;;5021104;28;20461;-67
2022/11/23 02:52:50;;;;;;;2.80;1.00;;;2.70;99.90;;;;;;5012020;28;20254;-66
2022/11/23 02:55:16;;;;;;;5.10;1.30;;;2.60;99.90;;;;;;5021028;28;20285;-67
2022/11/23 02:57:41;;;;;;;3.80;1.20;;;2.60;99.90;;;;;;5032053;28;20191;-66
2022/11/23 03:00:07;;;;;;;6.60;0.97;;;2.60;99.90;;;;;;5019621;28;20288;-67
2022/11/23 03:02:33;;;;;;;4.20;1.13;;;2.60;99.90;;;;;;5031323;28;20312;-66
2022/11/23 03:04:59;;;;;;;11.93;1.30;;;2.60;99.90;;;;;;5031703;28;20427;-67
2022/11/23 03:07:24;;;;;;;1.60;1.00;;;2.50;99.90;;;;;;5026429;28;20183;-67
2022/11/23 03:09:50;;;;;;;7.70;1.13;;;2.60;99.90;;;;;;5012663;28;20294;-66
2022/11/23 03:12:15;;;;;;;4.57;1.60;;;2.60;99.90;;;;;;5025424;28;20667;-66
2022/11/23 03:14:41;;;;;;;2.97;1.33;;;2.60;99.90;;;;;;5021424;28;20179;-66
2022/11/23 03:17:07;;;;;;;9.70;1.23;;;2.60;99.90;;;;;;5026383;28;20714;-67
2022/11/23 03:19:32;;;;;;;8.73;1.43;;;2.60;99.90;;;;;;5021070;28;20183;-67
2022/11/23 03:21:58;;;;;;;4.33;1.17;;;2.60;99.90;;;;;;5013021;28;20187;-66
2022/11/23 03:24:23;;;;;;;3.20;1.13;;;2.60;99.90;;;;;;5024913;28;20636;-67
2022/11/23 03:26:49;;;;;;;5.70;1.83;;;2.60;99.90;;;;;;5031938;28;20265;-66
2022/11/23 03:29:15;;;;;;;9.40;2.00;;;2.70;99.90;;;;;;5019802;28;20199;-66
2022/11/23 03:31:41;;;;;;;3.63;1.50;;;2.70;99.90;;;;;;5025008;28;20221;-66
2022/11/23 03:34:08;;;;;;;2.70;1.43;;;2.70;99.90;;;;;;5024204;28;20186;-66
2022/11/23 03:36:34;;;;;;;6.77;1.00;;;2.70;99.90;;;;;;5018543;28;20439;-66
2022/11/23 03:38:59;;;;;;;2.60;1.03;;;2.70;99.90;;;;;;5031911;28;20965;-67
2022/11/23 03:41:25;;;;;;;5.10;1.30;;;2.70;99.90;;;;;;5018599;28;20543;-66
2022/11/23 03:43:50;;;;;;;2.10;1.13;;;2.70;99.90;;;;;;5031120;28;20193;-67
2022/11/23 03:46:16;;;;;;;1.40;0.70;;;2.70;99.90;;;;;;5018295;28;20295;-66
2022/11/23 03:48:41;;;;;;;2.37;0.90;;;2.80;99.90;;;;;;5031418;28;20237;-67
2022/11/23 03:51:07;;;;;;;4.30;1.40;;;2.80;99.90;;;;;;5025788;28;20187;-67
2022/11/23 03:53:33;;;;;;;4.57;1.30;;;2.80;99.90;;;;;;5023824;28;20234;-67
2022/11/23 03:55:58;;;;;;;2.07;1.10;;;2.80;99.90;;;;;;5026520;28;20179;-67
2022/11/23 03:58:24;;;;;;;3.40;1.53;;;2.90;99.90;;;;;;5031042;28;20715;-66
2022/11/23 04:00:50;;;;;;;2.63;1.17;;;3.00;99.90;;;;;;5027089;28;20183;-66
2022/11/23 04:03:15;;;;;;;3.43;1.10;;;2.90;99.90;;;;;;5011235;28;20187;-66
2022/11/23 04:05:41;;;;;;;2.60;1.00;;;2.90;99.90;;;;;;5023331;28;20647;-67
2022/11/23 04:08:07;;;;;;;8.50;1.70;;;2.80;99.90;;;;;;5027979;28;20178;-67
2022/11/23 04:10:33;;;;;;;1.30;0.70;;;2.70;99.90;;;;;;5025629;28;20203;-66
2022/11/23 04:12:58;;;;;;;2.97;1.67;;;2.60;99.90;;;;;;5011552;28;20429;-67
2022/11/23 04:15:24;;;;;;;4.57;1.83;;;2.50;99.90;;;;;;5027836;28;20175;-67
2022/11/23 04:17:49;;;;;;;3.17;2.10;;;2.50;99.90;;;;;;5020172;28;20545;-67
2022/11/23 04:20:15;;;;;;;6.00;1.37;;;2.50;99.90;;;;;;5014223;28;20191;-67
2022/11/23 04:22:41;;;;;;;1.63;1.03;;;2.50;99.90;;;;;;5022263;28;20624;-67
2022/11/23 04:25:07;;;;;;;7.50;1.40;;;2.50;99.90;;;;;;5017904;28;20185;-67
2022/11/23 04:27:32;;;;;;;4.63;1.10;;;2.60;99.90;;;;;;5031471;28;20606;-67
2022/11/23 04:29:58;;;;;;;2.33;0.80;;;2.70;99.90;;;;;;5030457;28;20457;-67
2022/11/23 04:32:23;;;;;;;2.33;1.00;;;2.90;99.90;;;;;;5019794;28;20191;-66
2022/11/23 04:34:49;;;;;;;4.93;0.93;;;2.90;99.90;;;;;;5024778;28;20207;-66
2022/11/23 04:37:14;;;;;;;1.33;0.67;;;2.90;99.90;;;;;;5011472;28;20198;-66
2022/11/23 04:39:40;;;;;;;9.50;1.90;;;3.00;99.90;;;;;;5025889;28;20671;-66
2022/11/23 04:42:06;;;;;;;3.67;0.87;;;3.00;99.90;;;;;;5015044;28;20187;-67
2022/11/23 04:44:31;;;;;;;2.13;0.83;;;3.10;99.90;;;;;;5027933;28;20206;-66
2022/11/23 04:46:57;;;;;;;2.13;1.00;;;3.10;99.90;;;;;;5026107;28;20182;-66
2022/11/23 04:49:22;;;;;;;1.67;0.77;;;3.00;99.90;;;;;;5021808;28;20202;-66
2022/11/23 04:51:48;;;;;;;8.83;1.33;;;3.00;99.90;;;;;;5026565;28;20179;-67
2022/11/23 04:54:14;;;;;;;1.77;1.20;;;2.90;99.90;;;;;;5027702;28;20195;-66
2022/11/23 04:56:39;;;;;;;6.30;1.33;;;2.80;99.90;;;;;;5032183;28;20654;-66
2022/11/23 04:59:06;;;;;;;1.90;0.80;;;2.70;99.90;;;;;;5033943;28;20441;-66
2022/11/23 05:01:32;;;;;;;8.00;0.90;;;2.60;99.90;;;;;;5034847;28;20536;-66
2022/11/23 05:03:57;;;;;;;2.10;1.20;;;2.60;99.90;;;;;;5034574;28;20459;-66
2022/11/23 05:06:23;;;;;;;3.97;1.00;;;2.50;99.90;;;;;;5034054;28;20428;-66
2022/11/23 05:08:48;;;;;;;1.87;0.90;;;2.60;99.90;;;;;;5034545;28;20210;-67
2022/11/23 05:11:14;;;;;;;4.93;1.13;;;2.50;99.90;;;;;;5024858;28;20233;-67
2022/11/23 05:13:40;;;;;;;5.00;1.20;;;2.50;99.90;;;;;;5016452;28;20655;-66
2022/11/23 05:16:06;;;;;;;2.80;1.27;;;2.60;99.90;;;;;;5034604;28;20179;-67
2022/11/23 05:18:32;;;;;;;3.03;1.60;;;2.50;99.90;;;;;;5034322;28;20179;-67
2022/11/23 05:20:58;;;;;;;3.93;1.20;;;2.60;99.90;;;;;;5034544;28;20416;-66
2022/11/23 05:23:23;;;;;;;1.90;1.10;;;2.60;99.90;;;;;;5014782;28;20186;-66
2022/11/23 05:25:49;;;;;;;1.70;0.93;;;2.60;99.90;;;;;;5014665;28;20182;-66
2022/11/23 05:28:20;;;;;;;1.83;0.87;;;2.60;99.90;;;;;;5027616;28;20182;-66
2022/11/23 05:30:46;;;;;;;12.03;1.60;;;2.60;99.90;;;;;;5024574;28;20210;-67
2022/11/23 05:33:12;;;;;;;2.33;0.93;;;2.60;99.90;;;;;;5033557;28;20451;-66
2022/11/23 05:35:37;;;;;;;1.80;1.17;;;2.60;99.90;;;;;;5034419;28;20475;-67
2022/11/23 05:38:03;;;;;;;2.73;0.93;;;2.60;99.90;;;;;;5028354;28;20206;-67
2022/11/23 05:40:29;;;;;;;1.60;0.90;;;2.60;99.90;;;;;;5024450;28;20194;-67
2022/11/23 05:42:56;;;;;;;2.20;0.70;;;2.60;99.90;;;;;;5017210;28;20870;-66
2022/11/23 05:45:22;;;;;;;2.77;0.80;;;2.60;99.90;;;;;;5018010;28;20185;-67
2022/11/23 05:47:52;;;;;;;12.23;1.47;;;2.60;99.90;;;;;;5028961;28;20755;-67
2022/11/23 05:50:18;;;;;;;3.60;1.30;;;2.60;99.90;;;;;;5033489;28;20488;-67
2022/11/23 05:52:43;;;;;;;1.97;0.87;;;2.60;99.90;;;;;;5022472;28;20413;-67
2022/11/23 05:55:09;;;;;;;2.57;1.40;;;2.60;99.90;;;;;;5030196;28;20433;-67
2022/11/23 05:57:35;;;;;;;2.07;1.43;;;2.60;99.90;;;;;;5027605;28;20175;-67
2022/11/23 06:00:01;;;;;;;3.60;1.50;;;2.60;99.90;;;;;;5013609;28;20194;-67
2022/11/23 06:02:26;;;;;;;2.60;1.13;;;2.60;99.90;;;;;;5017839;28;20193;-67
2022/11/23 06:04:52;;;;;;;3.13;1.40;;;2.70;99.90;;;;;;5033407;28;20421;-67
2022/11/23 06:07:18;;;;;;;6.37;2.20;;;2.70;99.90;;;;;;5027534;28;20187;-67
2022/11/23 06:09:43;;;;;;;7.90;2.17;;;2.70;99.90;;;;;;5025126;28;20214;-67
2022/11/23 06:12:09;;;;;;;3.43;1.23;;;2.70;99.90;;;;;;5033090;28;20182;-67
2022/11/23 06:14:34;;;;;;;5.47;2.50;;;2.70;99.90;;;;;;5022107;28;20179;-67
2022/11/23 06:17:00;;;;;;;9.33;2.67;;;2.70;99.90;;;;;;5026778;28;20745;-67
2022/11/23 06:19:28;;;;;;;3.80;1.93;;;2.70;99.90;;;;;;5013891;28;20194;-67
2022/11/23 06:21:55;;;;;;;5.63;2.40;;;2.70;99.90;;;;;;5030632;28;20260;-67
2022/11/23 06:24:22;;;;;;;2.60;1.50;;;2.70;99.90;;;;;;5033690;28;20460;-67
2022/11/23 06:26:47;;;;;;;10.57;2.60;;;2.70;99.90;;;;;;5033617;28;20773;-67
2022/11/23 06:29:13;;;;;;;4.93;2.10;;;2.60;99.90;;;;;;5033190;28;20467;-67
2022/11/23 06:31:39;;;;;;;4.83;2.50;;;2.60;99.90;;;;;;5028772;28;20269;-67
2022/11/23 06:34:04;;;;;;;6.00;2.50;;;2.60;99.90;;;;;;5021195;28;20166;-67
2022/11/23 06:36:30;;;;;;;4.70;1.30;;;2.60;99.90;;;;;;5027953;28;20258;-67
2022/11/23 06:38:56;;;;;;;3.57;2.00;;;2.60;99.90;;;;;;5027994;28;20693;-67
2022/11/23 06:41:21;;;;;;;3.03;1.80;;;2.60;99.90;;;;;;5029204;28;20233;-67
2022/11/23 06:43:47;;;;;;;3.20;2.33;;;2.60;99.90;;;;;;5022576;28;20532;-67
2022/11/23 06:46:12;;;;;;;3.20;2.20;;;2.60;99.90;;;;;;5021862;28;20191;-67
2022/11/23 06:48:38;;;;;;;11.40;2.10;;;2.60;99.90;;;;;;5012388;28;20253;-70
2022/11/23 06:51:04;;;;;;;6.80;2.73;;;2.50;99.90;;;;;;5015267;28;20270;-67
2022/11/23 06:53:30;;;;;;;8.47;2.53;;;2.50;99.90;;;;;;5022215;28;20185;-67
2022/11/23 06:55:59;;;;;;;4.10;1.80;;;2.40;99.90;;;;;;5022473;28;20417;-67
2022/11/23 06:58:25;;;;;;;8.53;1.80;;;2.40;99.90;;;;;;5015451;28;20840;-67
2022/11/23 07:00:50;;;;;;;1.57;1.30;;;2.30;99.90;;;;;;5028185;28;20449;-67
2022/11/23 07:03:20;;;;;;;4.50;1.60;;;2.20;99.90;;;;;;5022615;28;20186;-66
2022/11/23 07:05:46;;;;;;;3.83;2.10;;;2.20;99.90;;;;;;5031248;28;20186;-67
2022/11/23 07:08:12;;;;;;;4.67;1.90;;;2.20;99.90;;;;;;5032145;28;20487;-66
2022/11/23 07:10:37;;;;;;;3.50;2.13;;;2.10;99.90;;;;;;5019090;28;20253;-67
2022/11/23 07:13:04;;;;;;;16.57;3.17;;;2.10;99.90;;;;;;5030922;28;20183;-66
2022/11/23 07:15:30;;;;;;;2.00;1.23;;;2.00;99.90;;;;;;5014046;28;20179;-66
2022/11/23 07:17:56;;;;;;;14.77;2.47;;;2.00;99.90;;;;;;5024501;28;20774;-66
2022/11/23 07:20:21;;;;;;;5.67;3.37;;;2.10;99.90;;;;;;5027553;28;20191;-66
2022/11/23 07:22:47;;;;;;;5.07;2.43;;;2.10;99.90;;;;;;5011897;28;20186;-67
2022/11/23 07:25:17;;;;;;;3.73;1.87;;;2.00;99.90;;;;;;5014115;28;20189;-67
2022/11/23 07:27:43;;;;;;;7.43;2.47;;;2.00;99.90;;;;;;5024398;28;20717;-66
2022/11/23 07:30:09;;;;;;;3.33;1.77;;;2.10;99.90;;;;;;5026659;28;20469;-66
2022/11/23 07:32:35;;;;;;;3.97;1.93;;;2.10;99.90;;;;;;5024078;28;20265;-66
2022/11/23 07:35:00;;;;;;;6.93;1.70;;;2.10;99.90;;;;;;5018812;28;20845;-67
2022/11/23 07:37:26;;;;;;;4.90;2.40;;;2.20;99.90;;;;;;5031734;28;20193;-66
2022/11/23 07:39:52;;;;;;;5.80;1.60;;;2.20;99.90;;;;;;5018638;28;20181;-66
2022/11/23 07:42:19;;;;;;;5.87;2.23;;;2.20;99.90;;;;;;5026319;28;20919;-66
2022/11/23 07:44:44;;;;;;;5.53;1.80;;;2.20;99.90;;;;;;5030197;28;20258;-66
2022/11/23 07:47:10;;;;;;;4.23;1.80;;;2.30;99.90;;;;;;5032264;28;20872;-66
2022/11/23 07:49:36;;;;;;;4.27;1.77;;;2.30;99.90;;;;;;5013184;28;20249;-67
2022/11/23 07:52:01;;;;;;;17.63;1.40;;;2.30;99.90;;;;;;5014483;28;20262;-67
2022/11/23 07:54:27;;;;;;;5.43;1.83;;;2.30;99.90;;;;;;5028301;28;20198;-67
2022/11/23 07:56:52;;;;;;;5.03;2.40;;;2.30;99.90;;;;;;5028601;28;20177;-66
2022/11/23 07:59:18;;;;;;;6.73;1.47;;;2.30;99.90;;;;;;5012062;28;20290;-67
2022/11/23 08:01:43;;;;;;;11.43;1.43;;;2.40;99.90;;;;;;5003996;28;20658;-67
2022/11/23 08:04:09;;;;;;;3.20;1.60;;;2.50;99.90;;;;;;5003523;28;20187;-67
2022/11/23 08:06:35;;;;;;;6.03;2.40;;;2.50;99.90;;;;;;5005130;28;20213;-67
2022/11/23 08:09:00;;;;;;;1.73;0.90;;;2.60;99.90;;;;;;5025254;28;20536;-67
2022/11/23 08:11:26;;;;;;;4.20;1.70;;;2.70;99.90;;;;;;5023618;28;20205;-68
2022/11/23 08:13:51;;;;;;;3.07;1.70;;;2.70;99.90;;;;;;5017540;28;20189;-69
2022/11/23 08:16:18;;;;;;;5.10;1.57;;;2.80;99.90;;;;;;5022580;28;20217;-69
2022/11/23 08:18:44;;;;;;;6.10;1.43;;;2.90;99.90;;;;;;5025024;28;20175;-69
2022/11/23 08:21:10;;;;;;;4.23;1.67;;;3.00;99.90;;;;;;5026555;28;20421;-66
2022/11/23 08:23:35;;;;;;;4.20;1.80;;;3.00;99.90;;;;;;5025798;28;20175;-66
2022/11/23 08:26:04;;;;;;;4.50;1.63;;;3.10;99.90;;;;;;5022946;28;20183;-66
2022/11/23 08:28:30;;;;;;;7.70;1.80;;;3.20;99.90;;;;;;5026055;28;20191;-66
2022/11/23 08:30:55;;;;;;;13.00;1.73;;;3.20;99.90;;;;;;5011398;28;20464;-67
2022/11/23 08:33:21;;;;;;;13.37;1.50;;;3.30;99.90;;;;;;5004329;28;20182;-67
2022/11/23 08:35:46;;;;;;;3.10;1.27;;;3.30;99.90;;;;;;5002418;28;20616;-67
2022/11/23 08:38:12;;;;;;;7.80;2.10;;;3.40;99.90;;;;;;5002403;28;20190;-67
2022/11/23 08:40:38;;;;;;;2.00;1.10;;;3.50;99.90;;;;;;5015366;28;20187;-67
2022/11/23 08:43:04;;;;;;;4.10;1.17;;;3.60;99.90;;;;;;5010158;28;20472;-67
2022/11/23 08:45:30;;;;;;;4.07;2.07;;;3.70;99.90;;;;;;5012798;28;20194;-67
2022/11/23 08:48:00;;;;;;;3.90;1.63;;;3.80;99.90;;;;;;5027351;28;20409;-67
2022/11/23 08:50:28;;;;;;;12.53;1.43;;;3.90;99.90;;;;;;5029131;28;20213;-67
2022/11/23 08:52:54;;;;;;;1.93;1.30;;;4.00;99.90;;;;;;5017781;28;20467;-67
2022/11/23 08:55:20;;;;;;;4.43;1.93;;;4.10;99.90;;;;;;5024275;28;20433;-67
2022/11/23 08:57:46;;;;;;;12.20;1.60;;;4.10;99.90;;;;;;5019460;28;20540;-67
2022/11/23 09:00:12;;;;;;;1.67;1.13;;;4.20;99.90;;;;;;5029430;28;20197;-67
2022/11/23 09:02:37;;;;;;;4.37;1.27;;;4.20;99.90;;;;;;5023196;28;20197;-67
2022/11/23 09:05:05;;;;;;;4.33;1.10;;;4.20;99.90;;;;;;5009049;28;20414;-67
2022/11/23 09:07:31;;;;;;;2.13;1.17;;;4.30;99.90;;;;;;5021576;28;20174;-67
2022/11/23 09:09:56;;;;;;;16.27;1.20;;;4.40;99.90;;;;;;5013408;28;20995;-67
2022/11/23 09:12:22;;;;;;;2.73;1.40;;;4.40;99.90;;;;;;5009444;28;20179;-67
2022/11/23 09:14:48;;;;;;;6.43;1.60;;;4.50;99.90;;;;;;5008795;28;20181;-67
2022/11/23 09:17:13;;;;;;;8.93;1.93;;;4.50;99.90;;;;;;5015823;28;20186;-67
2022/11/23 09:19:39;;;;;;;1.93;0.90;;;4.60;99.90;;;;;;5029034;28;20189;-67
2022/11/23 09:22:04;;;;;;;3.47;1.30;;;4.60;99.90;;;;;;5015664;28;20190;-67
2022/11/23 09:24:30;;;;;;;4.30;1.37;;;4.70;99.90;;;;;;5029068;28;20759;-67
2022/11/23 09:26:56;;;;;;;1.90;1.10;;;4.80;99.90;;;;;;5027036;28;20187;-67
2022/11/23 09:29:21;;;;;;;5.00;1.33;;;4.90;99.90;;;;;;5022040;28;20675;-67
2022/11/23 09:31:47;;;;;;;4.23;1.10;;;5.00;99.90;;;;;;5025906;28;20187;-67
2022/11/23 09:34:13;;;;;;;3.47;1.27;;;5.20;99.90;;;;;;5023098;28;20208;-68
2022/11/23 09:36:38;;;;;;;3.27;1.20;;;5.30;99.90;;;;;;5018943;28;20197;-67
2022/11/23 09:39:04;;;;;;;3.03;1.37;;;5.50;99.90;;;;;;5020055;28;20429;-68
2022/11/23 09:41:48;;;;;;;1.87;0.93;;;5.60;99.90;;;;;;5018347;28;20210;-67
2022/11/23 09:44:40;;;;;;;14.77;1.77;;;5.70;99.90;;;;;;5009167;28;20186;-67
2022/11/23 09:47:15;;;;;;;4.60;1.70;;;5.80;99.90;;;;;;5032826;28;20476;-67
2022/11/23 09:50:00;;;;;;;8.90;3.10;;;5.80;99.90;;;;;;5025913;28;20475;-68
2022/11/23 09:52:27;;;;;;;7.00;1.77;;;5.80;99.90;;;;;;5015232;28;20414;-68
2022/11/23 09:54:56;;;;;;;3.70;1.73;;;5.80;99.90;;;;;;5004770;28;20469;-67
2022/11/23 09:57:29;;;;;;;3.43;1.50;;;5.90;99.90;;;;;;5028040;28;20546;-71
2022/11/23 10:00:14;;;;;;;3.10;1.73;;;6.00;99.90;;;;;;5016872;28;20826;-67
2022/11/23 10:02:40;;;;;;;3.67;2.07;;;6.10;99.90;;;;;;5000558;28;20454;-67
2022/11/23 10:05:06;;;;;;;6.87;3.53;;;6.20;99.90;;;;;;5025856;28;20487;-67
2022/11/23 10:07:45;;;;;;;11.77;3.07;;;6.30;99.90;;;;;;5007579;28;20178;-67
2022/11/23 10:10:37;;;;;;;5.63;2.43;;;6.40;99.90;;;;;;5031487;28;20468;-67
2022/11/23 10:13:23;;;;;;;15.73;3.70;;;6.50;99.90;;;;;;5014159;28;20421;-67
2022/11/23 10:15:52;;;;;;;15.43;4.00;;;6.60;99.90;;;;;;5010010;28;20454;-67
2022/11/23 10:18:29;;;;;;;6.43;3.10;;;6.70;99.90;;;;;;5031968;28;20452;-67
2022/11/23 10:21:04;;;;;;;4.50;2.20;;;6.70;99.90;;;;;;5016638;28;20791;-67
2022/11/23 10:23:50;;;;;;;5.40;2.83;;;6.90;99.90;;;;;;5030857;28;20412;-69
2022/11/23 10:26:19;;;;;;;7.90;1.70;;;7.10;99.90;;;;;;5032921;28;21323;-67
2022/11/23 10:28:46;;;;;;;5.03;1.70;;;7.20;99.90;;;;;;5013245;28;20731;-67
2022/11/23 10:31:13;;;;;;;2.50;1.23;;;7.30;99.90;;;;;;5027895;28;20472;-67
2022/11/23 10:33:53;;;;;;;2.00;0.93;;;7.30;99.90;;;;;;5032958;28;20419;-67
2022/11/23 10:36:19;;;;;;;6.40;1.73;;;7.30;99.90;;;;;;5019517;28;20944;-67
2022/11/23 10:38:50;;;;;;;5.30;1.37;;;7.50;99.90;;;;;;5032392;28;20447;-67
2022/11/23 10:41:15;;;;;;;4.17;1.43;;;7.50;99.90;;;;;;5016084;28;20712;-67
2022/11/23 10:43:50;;;;;;;2.27;1.00;;;7.70;99.90;;;;;;5021107;28;20421;-67
2022/11/23 10:46:27;;;;;;;5.03;1.33;;;8.00;99.90;;;;;;5024439;28;20795;-67
2022/11/23 10:48:53;;;;;;;6.40;1.23;;;8.10;99.90;;;;;;5029860;28;20412;-67
2022/11/23 10:51:30;;;;;;;3.37;1.03;;;8.30;99.90;;;;;;5016465;28;20914;-67
2022/11/23 10:54:02;;;;;;;2.60;1.13;;;8.40;99.90;;;;;;5025324;28;20454;-67
2022/11/23 10:56:28;;;;;;;2.13;1.17;;;8.50;99.90;;;;;;5017470;28;20456;-68
2022/11/23 10:58:54;;;;;;;2.37;1.03;;;8.60;99.90;;;;;;5032247;28;20420;-67
2022/11/23 11:01:25;;;;;;;6.43;1.20;;;8.60;99.90;;;;;;5021928;28;20437;-67
2022/11/23 11:03:52;;;;;;;2.77;1.50;;;8.70;99.40;;;;;;5029067;28;20182;-67
2022/11/23 11:06:23;;;;;;;2.10;1.00;;;8.80;99.40;;;;;;5031723;28;20508;-67
2022/11/23 11:08:56;;;;;;;10.33;1.20;;;8.90;99.00;;;;;;5032562;28;20425;-68
2022/11/23 11:11:36;;;;;;;3.30;1.20;;;9.10;99.10;;;;;;5021296;28;20452;-69
2022/11/23 11:14:03;;;;;;;3.57;1.47;;;9.10;99.00;;;;;;5012853;28;20452;-67
2022/11/23 11:16:35;;;;;;;3.37;1.73;;;9.10;99.70;;;;;;5012182;28;20457;-68
2022/11/23 11:19:29;;;;;;;3.20;1.60;;;9.10;99.60;;;;;;5024431;28;20430;-67
2022/11/23 11:21:57;;;;;;;1.87;0.90;;;9.10;99.50;;;;;;5011239;28;20915;-67
2022/11/23 11:24:37;;;;;;;2.63;1.30;;;9.20;99.60;;;;;;5024515;28;20413;-68
2022/11/23 11:27:10;;;;;;;8.00;1.40;;;9.10;99.20;;;;;;5032380;28;20416;-67
2022/11/23 11:29:48;;;;;;;3.73;1.43;;;9.10;99.10;;;;;;5030243;28;20457;-67
2022/11/23 11:32:13;;;;;;;3.13;1.40;;;9.10;99.70;;;;;;5021755;28;20453;-67
2022/11/23 11:34:47;;;;;;;2.10;1.30;;;9.10;99.60;;;;;;5026108;28;20500;-67
2022/11/23 11:37:35;;;;;;;2.93;1.00;;;9.20;99.40;;;;;;5027523;28;20197;-68
2022/11/23 11:40:25;;;;;;;3.47;2.00;;;9.30;99.40;;;;;;5007530;28;20416;-67
2022/11/23 11:43:01;;;;;;;6.33;1.83;;;9.30;99.20;;;;;;5018115;28;20413;-68
2022/11/23 11:45:39;;;;;;;3.53;1.00;;;9.40;99.80;;;;;;5031684;28;20467;-68
2022/11/23 11:48:36;;;;;;;2.37;1.37;;;9.40;99.10;;;;;;5025015;28;20421;-67
2022/11/23 11:51:22;;;;;;;2.73;1.00;;;9.20;98.80;;;;;;5025119;28;20458;-67
2022/11/23 11:53:52;;;;;;;2.33;0.93;;;9.10;98.40;;;;;;5025122;28;20432;-68
2022/11/23 11:56:33;;;;;;;1.80;0.97;;;9.10;97.80;;;;;;5022913;28;20422;-67
2022/11/23 11:59:11;;;;;;;2.40;0.80;;;9.00;98.20;;;;;;5031476;28;20413;-68
2022/11/23 12:01:49;;;;;;;2.23;1.00;;;9.00;98.20;;;;;;5031854;28;20769;-67
2022/11/23 12:04:42;;;;;;;3.80;1.60;;;8.90;98.00;;;;;;5031908;28;20420;-66
2022/11/23 12:07:17;;;;;;;2.80;1.00;;;8.80;98.20;;;;;;5013829;28;20476;-71
2022/11/23 12:09:46;;;;;;;4.50;0.93;;;8.70;98.00;;;;;;5011981;28;20457;-68
2022/11/23 12:12:17;;;;;;;4.50;1.30;;;8.60;97.80;;;;;;5025105;28;20931;-67
2022/11/23 12:14:45;;;;;;;2.80;1.27;;;8.60;98.10;;;;;;5023927;28;20413;-67
2022/11/23 12:17:29;;;;;;;2.87;1.33;;;8.60;98.20;;;;;;5025602;28;20413;-67
2022/11/23 12:20:40;;;;;;;4.30;1.33;;;8.80;98.80;;;;;;5024904;28;20441;-68
2022/11/23 12:23:27;;;;;;;5.00;0.80;;;9.00;98.80;;;;;;5011723;28;20426;-67
2022/11/23 12:26:19;;;;;;;3.87;1.27;;;8.90;98.00;;;;;;5026843;28;20413;-66
2022/11/23 12:28:54;;;;;;;3.20;0.83;;;8.90;98.50;;;;;;5007527;28;20408;-67
2022/11/23 12:31:28;;;;;;;2.50;1.43;;;8.90;98.90;;;;;;5017980;28;20413;-67
2022/11/23 12:34:43;;;;;;;3.43;1.63;;;9.00;99.10;;;;;;5031576;28;20401;-66
2022/11/23 12:37:21;;;;;;;2.67;1.00;;;8.90;98.30;;;;;;5009268;28;20422;-67
2022/11/23 12:39:59;;;;;;;5.10;1.43;;;9.00;98.60;;;;;;5009120;28;20422;-67
2022/11/23 12:42:41;;;;;;;1.90;1.13;;;9.00;98.70;;;;;;5017525;28;20426;-67
2022/11/23 12:45:45;;;;;;;5.93;1.10;;;9.00;98.70;;;;;;5000683;28;20891;-67
2022/11/23 12:48:45;;;;;;;2.90;1.10;;;9.00;98.60;;;;;;4999782;28;20421;-67
2022/11/23 12:51:26;;;;;;;2.47;1.17;;;9.00;98.00;;;;;;4995383;28;20985;-67
2022/11/23 12:54:14;;;;;;;9.33;0.97;;;9.00;98.30;;;;;;5025270;28;20445;-67
2022/11/23 12:56:50;;;;;;;5.60;1.93;;;9.10;98.90;;;;;;5012728;28;20426;-67
2022/11/23 12:59:17;;;;;;;11.90;1.13;;;9.10;98.00;;;;;;5024087;28;20432;-66
2022/11/23 13:01:51;;;;;;;3.90;1.20;;;9.10;98.00;;;;;;5025928;28;20431;-67
2022/11/23 13:04:35;;;;;;;2.83;1.60;;;9.20;98.30;;;;;;5027873;28;20411;-67